Terminal Aerodrome Forecast
Issued by NWS

Home | Current Version | Previous Version | Text Only | Print | Product List | Glossary On
Versions: 1 2 3 4 5 6 7 8 9 10 11 12 13 14 15 16 17 18 19
711
FTUS42 TJSJ 170603 AAA
TAFIST
TAF AMD
TIST 170603Z 1706/1806 11010G20KT P6SM VCSH FEW018 BKN030
     FM171200 12010KT P6SM -SHRA SCT020 SCT050
     FM171500 13013KT P6SM -SHRA VCTS SCT010CB BKN040
     FM172000 11010KT P6SM VCSH FEW030 SCT050=

USA.gov is the U.S. government's official web portal to all federal, state and local government web resources and services.